createdAt,value
2024-04-24T00:01:39.120Z,100397.91
2024-04-24T00:04:24.615Z,100406.31
2024-04-24T00:07:10.075Z,100388.63
2024-04-24T00:09:55.503Z,100377.81
2024-04-24T00:12:41.511Z,100388.06
2024-04-24T00:15:27.066Z,100388.16
2024-04-24T00:18:12.551Z,100378.16
2024-04-24T00:20:57.988Z,100369.81
2024-04-24T00:23:43.375Z,100373.81
2024-04-24T00:26:29.161Z,100360.94
2024-04-24T00:29:14.598Z,100358.38
2024-04-24T00:32:00.020Z,100348.44
2024-04-24T00:34:45.216Z,100347.66
2024-04-24T00:37:30.573Z,100344.47
2024-04-24T00:40:15.837Z,100341.06
2024-04-24T00:43:01.163Z,100342.66
2024-04-24T00:45:48.076Z,100333.69
2024-04-24T00:48:33.764Z,100338.91
2024-04-24T00:51:20.643Z,100331.41
2024-04-24T00:54:07.020Z,100318.66
2024-04-24T00:56:52.541Z,100317.06
2024-04-24T00:59:38.191Z,100299.88
2024-04-24T01:02:23.339Z,100291.59
2024-04-24T01:05:08.991Z,100288.09
2024-04-24T01:07:54.570Z,100285.34
2024-04-24T01:10:40.050Z,100275.25
2024-04-24T01:13:26.147Z,100268.53
2024-04-24T01:16:18.492Z,100271.56
2024-04-24T01:19:09.189Z,100262.09
2024-04-24T01:22:26.443Z,100273.47
2024-04-24T01:25:36.333Z,100267.22
2024-04-24T01:28:22.685Z,100261.06
2024-04-24T01:31:08.194Z,100256.69
2024-04-24T01:33:53.618Z,100255.94
2024-04-24T01:36:38.968Z,100255.06
2024-04-24T01:39:24.150Z,100243.38
2024-04-24T01:42:09.621Z,100242.72
2024-04-24T01:44:54.544Z,100236.25
2024-04-24T01:47:40.119Z,100227.53
2024-04-24T01:50:25.476Z,100233.16
2024-04-24T01:53:10.947Z,100231.06
2024-04-24T01:55:56.322Z,100239.34
2024-04-24T01:58:41.646Z,100246.72
2024-04-24T02:01:26.941Z,100236.19
2024-04-24T02:04:12.376Z,100233.69
2024-04-24T02:06:57.710Z,100218.41
2024-04-24T02:09:42.629Z,100224.56
2024-04-24T02:12:28.342Z,100214.84
2024-04-24T02:15:13.815Z,100205.06
2024-04-24T02:18:06.431Z,100196.56
2024-04-24T02:20:51.819Z,100206.06
2024-04-24T02:23:37.103Z,100197.16
2024-04-24T02:26:22.443Z,100208.09
2024-04-24T02:29:07.664Z,100213.00
2024-04-24T02:31:53.019Z,100200.66
2024-04-24T02:34:38.395Z,100198.69
2024-04-24T02:37:23.868Z,100194.81
2024-04-24T02:40:09.390Z,100186.97
2024-04-24T02:42:54.844Z,100186.44
2024-04-24T02:45:40.151Z,100177.50
2024-04-24T02:48:25.511Z,100183.66
2024-04-24T02:51:11.307Z,100177.81
2024-04-24T02:53:56.367Z,100183.88
2024-04-24T02:56:41.726Z,100186.16
2024-04-24T02:59:27.158Z,100182.50
2024-04-24T03:02:12.463Z,100173.78
2024-04-24T03:04:57.905Z,100165.41
2024-04-24T03:07:43.319Z,100162.09
2024-04-24T03:10:28.832Z,100164.13
2024-04-24T03:13:14.191Z,100162.91
2024-04-24T03:15:59.751Z,100158.09
2024-04-24T03:18:45.044Z,100148.94
2024-04-24T03:21:30.480Z,100141.59
2024-04-24T03:24:16.127Z,100133.25
2024-04-24T03:27:01.457Z,100131.19
2024-04-24T03:29:47.049Z,100127.19
2024-04-24T03:32:32.570Z,100127.88
2024-04-24T03:35:17.738Z,100123.41
2024-04-24T03:38:03.273Z,100114.47
2024-04-24T03:40:48.641Z,100119.59
2024-04-24T03:43:34.190Z,100121.38
2024-04-24T03:46:19.595Z,100122.03
2024-04-24T03:49:05.062Z,100120.91
2024-04-24T03:51:50.399Z,100112.19
2024-04-24T03:54:35.867Z,100115.72
2024-04-24T03:57:21.445Z,100114.25
2024-04-24T04:00:07.608Z,100108.59
2024-04-24T04:02:52.812Z,100107.50
2024-04-24T04:05:38.532Z,100098.47
2024-04-24T04:08:23.924Z,100092.53
2024-04-24T04:11:09.460Z,100099.97
2024-04-24T04:13:54.806Z,100089.75
2024-04-24T04:16:39.996Z,100081.28
2024-04-24T04:19:25.406Z,100080.94
2024-04-24T04:22:10.760Z,100076.75
2024-04-24T04:24:56.300Z,100075.16
2024-04-24T04:27:41.543Z,100065.59
2024-04-24T04:30:27.208Z,100074.19
2024-04-24T04:33:12.667Z,100063.75
2024-04-24T04:35:58.143Z,100076.47
2024-04-24T04:38:43.585Z,100055.91
2024-04-24T04:41:28.917Z,100058.63
2024-04-24T04:44:14.441Z,100056.72
2024-04-24T04:46:59.855Z,100063.91
2024-04-24T04:49:45.177Z,100058.56
2024-04-24T04:52:31.187Z,100055.78
2024-04-24T04:55:16.580Z,100061.84
2024-04-24T04:58:02.044Z,100054.19
2024-04-24T05:00:47.398Z,100051.03
2024-04-24T05:03:32.772Z,100055.25
2024-04-24T05:06:18.176Z,100048.50
2024-04-24T05:09:03.645Z,100052.78
2024-04-24T05:11:49.237Z,100059.38
2024-04-24T05:14:34.450Z,100053.81
2024-04-24T05:17:19.897Z,100055.63
2024-04-24T05:20:06.384Z,100049.06
2024-04-24T05:22:51.530Z,100046.06
2024-04-24T05:25:36.931Z,100060.19
2024-04-24T05:28:22.423Z,100038.47
2024-04-24T05:31:07.948Z,100042.28
2024-04-24T05:33:53.431Z,100029.25
2024-04-24T05:36:38.726Z,100027.44
2024-04-24T05:39:24.176Z,100027.03
2024-04-24T05:42:09.432Z,100018.28
2024-04-24T05:44:54.628Z,100012.34
2024-04-24T05:47:40.160Z,100016.03
2024-04-24T05:50:25.511Z,100010.25
2024-04-24T05:53:11.095Z,100006.31
2024-04-24T05:55:56.508Z,99997.03
2024-04-24T05:58:41.884Z,99988.84
2024-04-24T06:01:27.228Z,99985.81
2024-04-24T06:04:12.821Z,99977.97
2024-04-24T06:06:58.234Z,99981.09
2024-04-24T06:09:43.501Z,99972.59
2024-04-24T06:12:28.945Z,99977.72
2024-04-24T06:15:14.326Z,99979.03
2024-04-24T06:17:59.858Z,99973.16
2024-04-24T06:20:45.170Z,99975.41
2024-04-24T06:23:30.810Z,99968.50
2024-04-24T06:26:16.170Z,99956.56
2024-04-24T06:29:01.473Z,99954.34
2024-04-24T06:31:46.624Z,99937.91
2024-04-24T06:34:31.865Z,99939.78
2024-04-24T06:37:17.353Z,99937.88
2024-04-24T06:40:02.738Z,99935.31
2024-04-24T06:42:50.003Z,99928.59
2024-04-24T06:45:35.284Z,99939.19
2024-04-24T06:48:20.344Z,99938.34
2024-04-24T06:51:05.724Z,99952.22
2024-04-24T06:53:51.012Z,99940.22
2024-04-24T06:56:37.896Z,99953.78
2024-04-24T06:59:24.473Z,99945.50
2024-04-24T07:02:09.589Z,99944.88
2024-04-24T07:04:54.892Z,99943.97
2024-04-24T07:07:40.311Z,99946.63
2024-04-24T07:10:25.679Z,99958.56
2024-04-24T07:13:11.037Z,99953.19
2024-04-24T07:15:56.400Z,99955.25
2024-04-24T07:18:41.690Z,99961.06
2024-04-24T07:21:26.981Z,99954.78
2024-04-24T07:24:12.547Z,99955.50
2024-04-24T07:26:57.865Z,99944.31
2024-04-24T07:29:43.152Z,99948.19
2024-04-24T07:32:28.545Z,99939.03
2024-04-24T07:35:14.954Z,99945.09
2024-04-24T07:38:01.188Z,99945.34
2024-04-24T07:40:46.636Z,99948.00
2024-04-24T07:43:33.457Z,99939.38
2024-04-24T07:46:18.627Z,99939.72
2024-04-24T07:49:04.329Z,99934.72
2024-04-24T07:51:49.751Z,99940.72
2024-04-24T07:54:35.112Z,99929.66
2024-04-24T07:57:20.583Z,99936.91
2024-04-24T08:00:06.705Z,99928.09
2024-04-24T08:02:52.175Z,99940.25
2024-04-24T08:05:37.510Z,99935.34
2024-04-24T08:08:23.075Z,99934.03
2024-04-24T08:11:08.538Z,99930.94
2024-04-24T08:13:53.881Z,99921.00
2024-04-24T08:16:39.435Z,99925.13
2024-04-24T08:19:24.954Z,99935.69
2024-04-24T08:22:10.598Z,99934.13
2024-04-24T08:24:56.114Z,99944.75
2024-04-24T08:27:41.751Z,99936.63
2024-04-24T08:30:27.178Z,99933.91
2024-04-24T08:33:12.467Z,99930.66
2024-04-24T08:36:05.116Z,99934.34
2024-04-24T08:38:50.247Z,99937.31
2024-04-24T08:41:35.641Z,99935.44
2024-04-24T08:44:21.403Z,99937.38
2024-04-24T08:47:06.753Z,99930.47
2024-04-24T08:49:52.273Z,99934.31
2024-04-24T08:52:43.554Z,99927.16
2024-04-24T08:55:30.068Z,99921.91
2024-04-24T08:58:21.517Z,99928.63
2024-04-24T09:01:14.080Z,99910.53
2024-04-24T09:04:06.046Z,99907.19
2024-04-24T09:06:52.409Z,99893.72
2024-04-24T09:09:37.955Z,99889.44
2024-04-24T09:12:25.244Z,99887.53
2024-04-24T09:15:10.320Z,99881.47
2024-04-24T09:17:56.134Z,99880.25
2024-04-24T09:20:41.564Z,99868.50
2024-04-24T09:23:26.853Z,99866.09
2024-04-24T09:26:13.272Z,99847.97
2024-04-24T09:28:58.773Z,99840.50
2024-04-24T09:31:44.418Z,99835.63
2024-04-24T09:34:29.777Z,99821.59
2024-04-24T09:37:15.520Z,99822.16
2024-04-24T09:40:03.872Z,99818.88
2024-04-24T09:42:49.610Z,99812.94
2024-04-24T09:45:35.021Z,99791.38
2024-04-24T09:48:24.550Z,99808.34
2024-04-24T09:51:12.347Z,99800.53
2024-04-24T09:53:57.781Z,99815.38
2024-04-24T09:56:44.724Z,99831.84
2024-04-24T09:59:32.352Z,99833.00
2024-04-24T10:02:21.046Z,99831.28
2024-04-24T10:05:17.053Z,99829.97
2024-04-24T10:08:05.384Z,99836.28
2024-04-24T10:10:54.224Z,99836.59
2024-04-24T10:13:42.683Z,99864.09
2024-04-24T10:16:29.294Z,99876.81
2024-04-24T10:19:16.168Z,99882.03
2024-04-24T10:22:02.248Z,99882.31
2024-04-24T10:24:49.044Z,99843.47
2024-04-24T10:27:36.583Z,99863.38
2024-04-24T10:30:23.820Z,99865.75
2024-04-24T10:33:09.778Z,99880.47
2024-04-24T10:35:55.040Z,99875.31
2024-04-24T10:38:44.290Z,99878.47
2024-04-24T10:41:30.234Z,99871.84
2024-04-24T10:44:16.960Z,99855.88
2024-04-24T10:47:02.507Z,99840.06
2024-04-24T10:49:54.933Z,99839.03
2024-04-24T10:52:47.432Z,99809.31
2024-04-24T10:55:33.103Z,99775.16
2024-04-24T10:58:21.953Z,99797.91
2024-04-24T11:01:07.301Z,99782.09
2024-04-24T11:03:53.157Z,99785.63
2024-04-24T11:06:38.800Z,99784.50
2024-04-24T11:09:25.141Z,99779.44
2024-04-24T11:12:10.927Z,99779.72
2024-04-24T11:14:56.972Z,99789.53
2024-04-24T11:17:44.204Z,99762.66
2024-04-24T11:20:29.668Z,99720.13
2024-04-24T11:23:15.029Z,99703.31
2024-04-24T11:26:00.650Z,99684.97
2024-04-24T11:28:45.854Z,99655.16
2024-04-24T11:31:44.012Z,99651.91
2024-04-24T11:34:29.505Z,99612.34
2024-04-24T11:37:15.540Z,99585.31
2024-04-24T11:40:01.026Z,99592.59
2024-04-24T11:42:47.528Z,99549.94
2024-04-24T11:45:32.991Z,99567.44
2024-04-24T11:48:25.261Z,99541.78
2024-04-24T11:51:14.752Z,99561.66
2024-04-24T11:54:01.156Z,99549.75
2024-04-24T11:56:46.761Z,99527.47
2024-04-24T11:59:32.054Z,99499.28
2024-04-24T12:02:18.283Z,99502.72
2024-04-24T12:05:05.018Z,99474.47
2024-04-24T12:07:50.686Z,99458.34
2024-04-24T12:10:36.177Z,99453.41
2024-04-24T12:13:21.738Z,99428.09
2024-04-24T12:16:07.269Z,99410.06
2024-04-24T12:18:52.658Z,99451.25
2024-04-24T12:21:38.080Z,99460.69
2024-04-24T12:24:23.773Z,99488.31
2024-04-24T12:27:09.412Z,99438.25
2024-04-24T12:29:54.728Z,99486.34
2024-04-24T12:32:40.851Z,99503.53
2024-04-24T12:35:25.961Z,99596.69
2024-04-24T12:38:11.339Z,99629.38
2024-04-24T12:40:56.778Z,99674.03
2024-04-24T12:43:41.982Z,99702.78
2024-04-24T12:46:27.428Z,99747.00
2024-04-24T12:49:12.905Z,99768.88
2024-04-24T12:51:58.347Z,99778.44
2024-04-24T12:54:43.629Z,99773.50
2024-04-24T12:57:29.019Z,99807.75
2024-04-24T13:00:17.608Z,99826.78
2024-04-24T13:03:04.986Z,99829.09
2024-04-24T13:05:50.583Z,99830.41
2024-04-24T13:08:35.993Z,99825.78
2024-04-24T13:11:21.494Z,99828.66
2024-04-24T13:14:06.934Z,99834.53
2024-04-24T13:16:52.249Z,99826.84
2024-04-24T13:19:37.888Z,99814.34
2024-04-24T13:22:23.285Z,99809.09
2024-04-24T13:25:08.540Z,99813.06
2024-04-24T13:27:53.929Z,99795.72
2024-04-24T13:30:38.963Z,99790.38
2024-04-24T13:33:24.511Z,99787.91
2024-04-24T13:36:09.886Z,99788.50
2024-04-24T13:38:55.365Z,99785.50
2024-04-24T13:41:41.365Z,99778.84
2024-04-24T13:44:26.709Z,99785.59
2024-04-24T13:47:12.001Z,99780.25
2024-04-24T13:49:57.544Z,99782.88
2024-04-24T13:52:42.829Z,99773.63
2024-04-24T13:55:28.039Z,99765.72
2024-04-24T13:58:13.304Z,99754.19
2024-04-24T14:00:58.699Z,99748.50
2024-04-24T14:03:44.184Z,99752.00
2024-04-24T14:06:30.587Z,99763.38
2024-04-24T14:09:16.183Z,99758.75
2024-04-24T14:12:01.498Z,99765.84
2024-04-24T14:14:46.909Z,99753.97
2024-04-24T14:17:32.398Z,99752.19
2024-04-24T14:20:17.895Z,99747.28
2024-04-24T14:23:03.767Z,99747.66
2024-04-24T14:25:49.071Z,99749.31
2024-04-24T14:28:34.674Z,99753.75
2024-04-24T14:31:20.027Z,99747.13
2024-04-24T14:34:05.375Z,99745.75
2024-04-24T14:36:51.104Z,99751.78
2024-04-24T14:39:36.407Z,99747.09
2024-04-24T14:42:21.823Z,99728.72
2024-04-24T14:45:07.000Z,99731.88
2024-04-24T14:47:52.601Z,99723.88
2024-04-24T14:50:38.034Z,99714.03
2024-04-24T14:53:23.315Z,99710.94
2024-04-24T14:56:09.013Z,99721.03
2024-04-24T14:58:55.005Z,99738.84
2024-04-24T15:01:40.321Z,99718.75
2024-04-24T15:04:25.816Z,99716.81
2024-04-24T15:07:11.228Z,99710.03
2024-04-24T15:09:57.672Z,99716.06
2024-04-24T15:12:42.805Z,99717.84
2024-04-24T15:15:28.286Z,99715.53
2024-04-24T15:18:13.987Z,99708.09
2024-04-24T15:20:59.391Z,99712.84
2024-04-24T15:23:45.499Z,99718.53
2024-04-24T15:26:30.870Z,99714.56
2024-04-24T15:29:16.536Z,99719.25
2024-04-24T15:32:02.024Z,99711.25
2024-04-24T15:34:47.538Z,99718.47
2024-04-24T15:37:32.941Z,99707.50
2024-04-24T15:40:18.062Z,99698.03
2024-04-24T15:43:03.650Z,99698.56
2024-04-24T15:45:48.996Z,99695.38
2024-04-24T15:48:38.082Z,99693.88
2024-04-24T15:51:23.137Z,99698.59
2024-04-24T15:54:08.591Z,99707.44
2024-04-24T15:56:53.923Z,99710.63
2024-04-24T15:59:39.402Z,99706.47
2024-04-24T16:02:24.785Z,99709.50
2024-04-24T16:05:09.910Z,99693.00
2024-04-24T16:07:55.538Z,99669.22
2024-04-24T16:10:40.781Z,99676.09
2024-04-24T16:13:26.331Z,99680.03
2024-04-24T16:16:14.422Z,99698.97
2024-04-24T16:19:00.064Z,99695.88
2024-04-24T16:21:45.506Z,99695.72
2024-04-24T16:24:30.425Z,99706.41
2024-04-24T16:27:16.112Z,99701.88
2024-04-24T16:30:01.482Z,99702.72
2024-04-24T16:32:46.997Z,99714.25
2024-04-24T16:35:32.297Z,99706.19
2024-04-24T16:38:20.544Z,99707.72
2024-04-24T16:41:06.298Z,99715.41
2024-04-24T16:43:53.150Z,99720.13
2024-04-24T16:46:38.426Z,99720.25
2024-04-24T16:49:23.961Z,99715.78
2024-04-24T16:52:10.865Z,99713.47
2024-04-24T16:54:56.148Z,99715.47
2024-04-24T16:57:41.422Z,99720.88
2024-04-24T17:00:26.995Z,99713.03
2024-04-24T17:03:12.549Z,99720.25
2024-04-24T17:05:57.705Z,99712.28
2024-04-24T17:08:43.241Z,99716.13
2024-04-24T17:11:28.518Z,99723.69
2024-04-24T17:14:14.068Z,99714.06
2024-04-24T17:16:59.670Z,99714.16
2024-04-24T17:19:44.932Z,99710.84
2024-04-24T17:22:30.417Z,99715.38
2024-04-24T17:25:15.803Z,99709.59
2024-04-24T17:28:01.214Z,99712.47
2024-04-24T17:30:46.548Z,99718.75
2024-04-24T17:33:31.924Z,99723.19
2024-04-24T17:36:17.280Z,99716.06
2024-04-24T17:39:02.648Z,99719.75
2024-04-24T17:41:48.096Z,99736.19
2024-04-24T17:44:33.654Z,99734.31
2024-04-24T17:47:18.992Z,99740.16
2024-04-24T17:50:04.670Z,99736.72
2024-04-24T17:52:50.546Z,99737.09
2024-04-24T17:55:35.866Z,99733.88
2024-04-24T17:58:21.367Z,99743.75
2024-04-24T18:01:06.941Z,99747.22
2024-04-24T18:03:52.267Z,99748.72
2024-04-24T18:06:37.761Z,99752.50
2024-04-24T18:09:23.332Z,99749.69
2024-04-24T18:12:08.802Z,99746.78
2024-04-24T18:14:54.719Z,99756.03
2024-04-24T18:17:40.497Z,99760.25
2024-04-24T18:20:25.868Z,99766.50
2024-04-24T18:23:10.984Z,99772.06
2024-04-24T18:25:56.419Z,99766.41
2024-04-24T18:28:41.875Z,99775.38
2024-04-24T18:31:27.325Z,99774.63
2024-04-24T18:34:15.595Z,99777.34
2024-04-24T18:37:01.548Z,99768.09
2024-04-24T18:39:47.046Z,99774.16
2024-04-24T18:42:32.384Z,99770.78
2024-04-24T18:45:17.782Z,99777.69
2024-04-24T18:48:05.450Z,99778.59
2024-04-24T18:50:52.526Z,99767.63
2024-04-24T18:53:38.364Z,99768.97
2024-04-24T18:56:23.520Z,99764.09
2024-04-24T18:59:08.908Z,99762.44
2024-04-24T19:01:54.013Z,99765.69
2024-04-24T19:04:39.375Z,99763.00
2024-04-24T19:07:24.817Z,99767.41
2024-04-24T19:10:10.239Z,99768.19
2024-04-24T19:12:55.728Z,99756.97
2024-04-24T19:15:41.320Z,99749.03
2024-04-24T19:18:26.782Z,99750.22
2024-04-24T19:21:12.204Z,99758.63
2024-04-24T19:23:59.050Z,99750.91
2024-04-24T19:26:44.527Z,99753.50
2024-04-24T19:29:30.083Z,99750.09
2024-04-24T19:32:15.486Z,99750.84
2024-04-24T19:35:00.945Z,99744.75
2024-04-24T19:37:49.884Z,99746.47
2024-04-24T19:40:35.276Z,99755.09
2024-04-24T19:43:20.722Z,99759.47
2024-04-24T19:46:09.944Z,99773.06
2024-04-24T19:48:55.268Z,99778.22
2024-04-24T19:51:40.770Z,99788.44
2024-04-24T19:54:26.260Z,99794.59
2024-04-24T19:57:11.750Z,99790.38
2024-04-24T19:59:57.066Z,99790.41
2024-04-24T20:02:42.612Z,99786.13
2024-04-24T20:05:28.192Z,99783.34
2024-04-24T20:08:13.757Z,99789.91
2024-04-24T20:11:06.914Z,99794.09
2024-04-24T20:13:52.603Z,99796.69
2024-04-24T20:16:37.998Z,99809.84
2024-04-24T20:19:23.622Z,99808.28
2024-04-24T20:22:09.101Z,99815.03
2024-04-24T20:24:54.745Z,99810.75
2024-04-24T20:27:40.151Z,99817.66
2024-04-24T20:30:25.433Z,99802.69
2024-04-24T20:33:11.050Z,99809.66
2024-04-24T20:35:56.487Z,99820.38
2024-04-24T20:38:41.905Z,99826.59
2024-04-24T20:41:27.146Z,99810.09
2024-04-24T20:44:12.850Z,99818.72
2024-04-24T20:46:58.063Z,99816.81
2024-04-24T20:49:43.458Z,99813.53
2024-04-24T20:52:28.896Z,99810.84
2024-04-24T20:55:14.490Z,99801.16
2024-04-24T20:57:59.946Z,99803.84
2024-04-24T21:00:45.420Z,99797.91
2024-04-24T21:03:30.965Z,99794.69
2024-04-24T21:06:16.407Z,99786.41
2024-04-24T21:09:02.275Z,99784.16
2024-04-24T21:11:47.614Z,99776.38
2024-04-24T21:14:33.199Z,99782.44
2024-04-24T21:17:18.562Z,99784.03
2024-04-24T21:20:04.036Z,99773.88
2024-04-24T21:22:49.388Z,99774.00
2024-04-24T21:25:37.993Z,99760.56
2024-04-24T21:28:23.695Z,99759.97
2024-04-24T21:31:08.914Z,99759.16
2024-04-24T21:33:54.355Z,99766.19
2024-04-24T21:36:39.848Z,99771.09
2024-04-24T21:39:25.228Z,99762.94
2024-04-24T21:42:11.007Z,99763.50
2024-04-24T21:44:56.346Z,99768.75
2024-04-24T21:47:41.775Z,99779.34
2024-04-24T21:50:27.304Z,99779.56
2024-04-24T21:53:12.339Z,99778.41
2024-04-24T21:55:57.865Z,99769.66
2024-04-24T21:58:43.189Z,99771.25
2024-04-24T22:01:28.576Z,99767.75
2024-04-24T22:04:14.079Z,99771.97
2024-04-24T22:06:59.371Z,99779.91
2024-04-24T22:09:44.855Z,99781.03
2024-04-24T22:12:30.270Z,99776.56
2024-04-24T22:15:15.672Z,99779.25
2024-04-24T22:18:01.146Z,99777.44
2024-04-24T22:20:46.450Z,99778.63
2024-04-24T22:23:32.042Z,99773.75
2024-04-24T22:26:17.481Z,99785.00
2024-04-24T22:29:02.991Z,99786.75
2024-04-24T22:31:49.171Z,99782.63
2024-04-24T22:34:34.244Z,99767.41
2024-04-24T22:37:19.413Z,99779.38
2024-04-24T22:40:04.794Z,99784.31
2024-04-24T22:42:49.869Z,99783.53
2024-04-24T22:45:35.372Z,99802.56
2024-04-24T22:48:20.847Z,99799.25
2024-04-24T22:51:06.154Z,99794.13
2024-04-24T22:53:51.684Z,99799.16
2024-04-24T22:56:36.946Z,99785.31
2024-04-24T22:59:22.428Z,99797.72
2024-04-24T23:02:08.076Z,99807.47
2024-04-24T23:04:53.600Z,99807.97
2024-04-24T23:07:39.179Z,99799.13
2024-04-24T23:10:24.813Z,99807.91
2024-04-24T23:13:10.155Z,99808.50
2024-04-24T23:15:55.536Z,99809.03
2024-04-24T23:18:40.893Z,99816.09
2024-04-24T23:21:26.280Z,99814.44
2024-04-24T23:24:11.749Z,99800.22
2024-04-24T23:26:57.088Z,99805.34
2024-04-24T23:29:42.457Z,99802.91
2024-04-24T23:32:27.951Z,99796.00
2024-04-24T23:35:13.253Z,99797.78
2024-04-24T23:37:58.820Z,99793.63
2024-04-24T23:40:44.188Z,99781.34
2024-04-24T23:43:29.780Z,99788.38
2024-04-24T23:46:16.172Z,99789.81
2024-04-24T23:49:01.419Z,99778.44
2024-04-24T23:51:46.948Z,99782.53
2024-04-24T23:54:32.353Z,99776.97
2024-04-24T23:57:17.696Z,99796.28
